Terminal Aerodrome Forecast
Issued by NWS Louisville, KY

Home | Current Version | Previous Version | Text Only | Print | Product List | Glossary On
Versions: 1 2 3 4 5 6 7 8 9 10 11 12 13
000
FTUS43 KLMK 251400 AAA
TAFSDF
TAF AMD
KSDF 251457Z 2515/2618 23009KT P6SM BKN026
     FM251800 27010KT P6SM SCT035
     FM260200 33004KT P6SM SKC=

USA.gov is the U.S. government's official web portal to all federal, state and local government web resources and services.